createdAt,value
2018-07-13T13:12:02.432Z,27.81
2018-07-13T13:14:32.811Z,27.90
2018-07-13T13:17:02.887Z,27.97
2018-07-13T13:19:33.975Z,28.03
2018-07-13T13:22:04.332Z,28.07
2018-07-13T13:24:34.651Z,28.13
2018-07-13T13:27:04.638Z,28.24
2018-07-13T13:29:34.911Z,28.34
2018-07-13T13:32:05.162Z,28.52
2018-07-13T13:34:35.459Z,28.65
2018-07-13T13:37:05.928Z,28.75
2018-07-13T13:39:36.170Z,28.81
2018-07-13T13:42:07.106Z,28.82
2018-07-13T13:44:37.608Z,28.86
2018-07-13T13:47:08.534Z,28.91
2018-07-13T13:49:38.921Z,29.01
2018-07-13T13:52:10.437Z,29.10
2018-07-13T13:54:40.916Z,29.22
2018-07-13T13:57:13.244Z,29.29
2018-07-13T13:59:44.435Z,29.44
2018-07-13T14:02:15.486Z,29.49
2018-07-13T14:04:48.195Z,29.49
2018-07-13T14:07:18.646Z,29.50
2018-07-13T14:09:49.644Z,29.48
2018-07-13T14:12:19.943Z,29.53
2018-07-13T14:14:50.272Z,29.57
2018-07-13T14:17:20.690Z,29.67
2018-07-13T14:19:51.678Z,29.69
2018-07-13T14:22:22.196Z,29.71
2018-07-13T14:24:53.227Z,29.47
2018-07-13T14:27:23.979Z,29.60
2018-07-13T14:29:54.339Z,29.83
2018-07-13T14:32:25.266Z,29.91
2018-07-13T14:34:56.118Z,29.91
2018-07-13T14:37:26.599Z,29.91
2018-07-13T14:39:56.845Z,29.98
2018-07-13T14:42:27.015Z,29.98
2018-07-13T14:44:57.203Z,29.85
2018-07-13T14:47:27.498Z,29.83
2018-07-13T14:49:57.717Z,29.86
2018-07-13T14:52:28.090Z,29.88
2018-07-13T14:54:58.922Z,29.87
2018-07-13T14:57:29.233Z,29.97
2018-07-13T14:59:59.684Z,30.14
2018-07-13T15:02:30.078Z,30.33
2018-07-13T15:05:00.017Z,30.41
2018-07-13T15:07:30.340Z,30.41
2018-07-13T15:10:02.159Z,30.30
2018-07-13T15:12:32.657Z,30.28
2018-07-13T15:15:03.517Z,30.39
2018-07-13T15:17:33.968Z,30.50
2018-07-13T15:20:04.589Z,30.52
2018-07-13T15:22:35.159Z,30.63
2018-07-13T15:25:05.567Z,30.67
2018-07-13T15:27:35.869Z,30.71
2018-07-13T15:30:06.286Z,30.78
2018-07-13T15:32:36.952Z,30.87
2018-07-13T15:35:07.517Z,30.96
2018-07-13T15:37:38.188Z,30.94
2018-07-13T15:40:08.561Z,30.87
2018-07-13T15:42:39.079Z,30.91
2018-07-13T15:45:09.476Z,31.02
2018-07-13T15:47:39.870Z,31.06
2018-07-13T15:50:11.016Z,30.93
2018-07-13T15:52:41.267Z,30.93
2018-07-13T15:55:13.362Z,31.04
2018-07-13T15:57:43.779Z,31.16
2018-07-13T16:00:14.891Z,31.40
2018-07-13T16:02:45.508Z,31.70
2018-07-13T16:05:17.205Z,31.81
2018-07-13T16:07:47.692Z,32.02
2018-07-13T16:10:19.025Z,32.26
2018-07-13T16:12:49.700Z,32.28
2018-07-13T16:15:21.028Z,32.31
2018-07-13T16:17:52.114Z,32.43
2018-07-13T16:20:23.341Z,32.87
2018-07-13T16:22:54.362Z,32.26
2018-07-13T16:25:25.103Z,31.30
2018-07-13T16:27:56.213Z,30.85
2018-07-13T16:30:27.712Z,31.39
2018-07-13T16:32:58.504Z,31.08
2018-07-13T16:35:29.519Z,30.48
2018-07-13T16:38:00.388Z,30.04
2018-07-13T16:40:40.462Z,29.79
2018-07-13T16:43:11.138Z,29.51
2018-07-13T16:45:41.606Z,29.33
2018-07-13T16:48:12.011Z,29.12
2018-07-13T16:50:42.717Z,28.97
2018-07-13T16:53:13.392Z,28.87
2018-07-13T16:55:43.635Z,29.08
2018-07-13T16:58:13.902Z,30.92
2018-07-13T17:00:44.061Z,33.11
2018-07-13T17:03:15.060Z,34.71
2018-07-13T17:05:45.382Z,35.88
2018-07-13T17:08:15.589Z,36.53
2018-07-13T17:10:45.725Z,36.63
2018-07-13T17:13:15.943Z,37.51
2018-07-13T17:15:46.254Z,37.63
2018-07-13T17:18:16.552Z,37.69
2018-07-13T17:20:47.123Z,37.93
2018-07-13T17:23:17.799Z,37.52
2018-07-13T17:25:47.959Z,37.52
2018-07-13T17:28:18.295Z,37.76
2018-07-13T17:30:49.553Z,37.68
2018-07-13T17:33:20.516Z,37.45
2018-07-13T17:35:50.592Z,37.59
2018-07-13T17:38:20.899Z,37.52
2018-07-13T17:40:51.534Z,37.51
2018-07-13T17:43:22.169Z,37.20
2018-07-13T17:45:52.461Z,37.03
2018-07-13T17:48:23.030Z,37.39
2018-07-13T17:50:53.804Z,37.33
2018-07-13T17:53:24.063Z,37.20
2018-07-13T17:55:54.510Z,36.92
2018-07-13T17:58:25.210Z,36.92
2018-07-13T18:00:55.955Z,36.87
2018-07-13T18:03:26.081Z,36.51
2018-07-13T18:05:56.462Z,36.20
2018-07-13T18:08:27.161Z,36.16
2018-07-13T18:10:57.296Z,36.01
2018-07-13T18:13:27.899Z,35.84
2018-07-13T18:15:58.546Z,35.58
2018-07-13T18:18:29.042Z,35.25
2018-07-13T18:21:00.065Z,34.99
2018-07-13T18:23:30.556Z,34.83
2018-07-13T18:26:00.813Z,34.61
2018-07-13T18:28:31.051Z,34.21
2018-07-13T18:31:01.718Z,33.89
2018-07-13T18:33:32.126Z,33.60
2018-07-13T18:36:02.872Z,33.36
2018-07-13T18:38:33.178Z,32.87
2018-07-13T18:41:03.671Z,32.39
2018-07-13T18:43:34.258Z,31.64
2018-07-13T18:46:05.148Z,30.89
2018-07-13T18:48:35.963Z,30.34
2018-07-13T18:51:06.678Z,29.84
2018-07-13T18:53:37.517Z,29.46
2018-07-13T18:56:08.637Z,29.15
2018-07-13T18:58:39.348Z,28.89
2018-07-13T19:01:09.984Z,28.61
2018-07-13T19:03:40.385Z,28.37
2018-07-13T19:06:10.745Z,28.17
2018-07-13T19:08:41.505Z,27.97
2018-07-13T19:11:11.660Z,27.83
2018-07-13T19:13:42.023Z,27.74
2018-07-13T19:16:12.601Z,27.62
2018-07-13T19:18:43.164Z,27.53
2018-07-13T19:21:13.431Z,27.47
2018-07-13T19:23:43.775Z,27.43
2018-07-13T19:26:14.800Z,27.38
2018-07-13T19:28:46.107Z,27.29
2018-07-13T19:31:16.472Z,27.22
2018-07-13T19:33:47.380Z,27.14
2018-07-13T19:36:18.767Z,27.08
2018-07-13T19:38:49.747Z,27.03
2018-07-13T19:41:20.714Z,26.97
2018-07-13T19:43:52.163Z,26.95
2018-07-13T19:46:23.073Z,26.94
2018-07-13T19:48:54.290Z,26.94
2018-07-13T19:51:25.148Z,26.92
2018-07-13T19:53:56.234Z,26.87
2018-07-13T20:00:42.347Z,26.79
2018-07-13T20:03:12.689Z,26.70
2018-07-13T20:05:43.185Z,26.67
2018-07-13T20:08:13.905Z,26.60
2018-07-13T20:10:44.037Z,26.59
2018-07-13T20:13:14.406Z,26.57
2018-07-13T20:15:44.809Z,26.52
2018-07-13T20:18:14.914Z,26.44
2018-07-13T20:20:45.063Z,26.40
2018-07-13T20:23:15.194Z,26.33
2018-07-13T20:25:45.349Z,26.25
2018-07-13T20:28:15.690Z,26.18
2018-07-13T20:30:46.358Z,26.09
2018-07-13T20:33:16.827Z,26.00
2018-07-13T20:35:47.199Z,25.93
2018-07-13T20:38:17.921Z,25.86
2018-07-13T20:40:48.393Z,25.79
2018-07-13T20:43:18.872Z,25.70
2018-07-13T20:45:49.151Z,25.67
2018-07-13T20:48:20.170Z,25.60
2018-07-13T20:50:51.154Z,25.52
2018-07-13T21:00:41.347Z,25.44
2018-07-13T21:03:11.623Z,25.25
2018-07-13T21:05:41.847Z,25.20
2018-07-13T21:08:12.054Z,25.17
2018-07-13T21:10:42.231Z,25.12
2018-07-13T21:13:12.857Z,25.08
2018-07-13T21:15:43.412Z,25.07
2018-07-13T21:18:14.113Z,25.05
2018-07-13T21:20:44.827Z,25.00
2018-07-13T21:23:15.116Z,24.98
2018-07-13T21:25:45.609Z,24.92
2018-07-13T21:28:16.209Z,24.89
2018-07-13T21:30:46.713Z,24.80
2018-07-13T21:33:17.176Z,24.72
2018-07-13T21:35:47.864Z,24.69
2018-07-13T21:38:18.181Z,24.57
2018-07-13T21:40:48.336Z,24.37
2018-07-13T21:43:18.607Z,24.38
2018-07-13T21:45:48.814Z,24.35
2018-07-13T21:48:19.087Z,24.24
2018-07-13T21:50:49.096Z,24.15
2018-07-13T21:53:19.463Z,23.98
2018-07-13T22:00:39.614Z,23.93
2018-07-13T22:04:39.173Z,23.96
2018-07-13T22:07:09.702Z,23.94
2018-07-13T22:09:39.833Z,23.92
2018-07-13T22:12:10.657Z,23.86
2018-07-13T22:14:40.832Z,23.85
2018-07-13T22:17:11.334Z,23.79
2018-07-13T22:19:41.733Z,23.78
2018-07-13T22:22:11.741Z,23.72
2018-07-13T22:24:41.795Z,23.61
2018-07-13T22:27:11.983Z,23.64
2018-07-13T22:29:42.535Z,23.59
2018-07-13T22:32:13.121Z,23.60
2018-07-13T22:34:43.480Z,23.65
2018-07-13T22:37:13.539Z,23.67
2018-07-13T22:39:43.688Z,23.73
2018-07-13T22:42:13.920Z,23.71
2018-07-13T22:44:44.223Z,23.71
2018-07-13T22:47:14.283Z,23.73
2018-07-13T22:49:44.402Z,23.71
2018-07-13T22:52:14.687Z,23.69
2018-07-13T22:54:45.714Z,23.69
2018-07-13T23:00:42.031Z,23.71
2018-07-13T23:03:12.290Z,23.66
2018-07-13T23:05:42.373Z,23.67
2018-07-13T23:08:12.942Z,23.65
2018-07-13T23:10:43.793Z,23.67
2018-07-13T23:13:14.095Z,23.60
2018-07-13T23:15:44.551Z,23.64
2018-07-13T23:18:14.718Z,23.50
2018-07-13T23:20:44.778Z,23.44
2018-07-13T23:23:15.137Z,23.34
2018-07-13T23:25:45.139Z,23.23
2018-07-13T23:28:15.304Z,23.19
2018-07-13T23:30:45.438Z,23.18
2018-07-13T23:33:15.549Z,23.21
2018-07-13T23:35:45.598Z,23.21
2018-07-13T23:38:15.818Z,23.17
2018-07-13T23:40:46.075Z,23.05
2018-07-13T23:43:16.173Z,23.04
2018-07-13T23:45:46.331Z,23.04
2018-07-13T23:48:16.388Z,23.02
2018-07-13T23:50:46.620Z,22.95
2018-07-13T23:53:17.059Z,22.94
2018-07-13T23:55:47.386Z,22.90
2018-07-13T23:58:17.835Z,22.88
